sensor_id;sensor_type;location;lat;lon;timestamp;temperature;humidity
28253;DHT22;15515;45.588;5.276;2022-08-18T09:54:50;24.20;99.90
28253;DHT22;15515;45.588;5.276;2022-08-18T09:59:52;24.10;99.90
28253;DHT22;15515;45.588;5.276;2022-08-18T10:19:14;23.80;99.90
28253;DHT22;15515;45.588;5.276;2022-08-18T10:24:29;23.50;99.90
28253;DHT22;15515;45.588;5.276;2022-08-18T10:27:33;23.70;99.90
28253;DHT22;15515;45.588;5.276;2022-08-18T10:29:58;23.80;99.90
28253;DHT22;15515;45.588;5.276;2022-08-18T10:32:41;23.80;99.90
28253;DHT22;15515;45.588;5.276;2022-08-18T10:37:55;24.20;99.90
28253;DHT22;15515;45.588;5.276;2022-08-18T10:40:23;24.30;99.90
28253;DHT22;15515;45.588;5.276;2022-08-18T10:43:17;24.30;99.90
28253;DHT22;15515;45.588;5.276;2022-08-18T10:46:17;24.20;99.90
28253;DHT22;15515;45.588;5.276;2022-08-18T10:59:56;24.20;99.90
28253;DHT22;15515;45.588;5.276;2022-08-18T11:02:48;24.30;99.90
28253;DHT22;15515;45.588;5.276;2022-08-18T11:05:25;24.10;99.90
28253;DHT22;15515;45.588;5.276;2022-08-18T11:08:03;24.10;99.90
28253;DHT22;15515;45.588;5.276;2022-08-18T11:10:43;24.20;99.90
28253;DHT22;15515;45.588;5.276;2022-08-18T11:13:32;24.30;99.90
28253;DHT22;15515;45.588;5.276;2022-08-18T11:18:57;24.40;99.90
28253;DHT22;15515;45.588;5.276;2022-08-18T11:27:15;24.70;99.90
28253;DHT22;15515;45.588;5.276;2022-08-18T11:29:39;24.70;99.30
28253;DHT22;15515;45.588;5.276;2022-08-18T11:34:58;24.60;99.60
28253;DHT22;15515;45.588;5.276;2022-08-18T11:39:59;24.50;99.80
28253;DHT22;15515;45.588;5.276;2022-08-18T11:42:32;24.30;99.90
28253;DHT22;15515;45.588;5.276;2022-08-18T11:45:14;24.20;99.90
28253;DHT22;15515;45.588;5.276;2022-08-18T11:48:00;24.20;99.90
28253;DHT22;15515;45.588;5.276;2022-08-18T11:50:30;24.10;99.90
28253;DHT22;15515;45.588;5.276;2022-08-18T11:53:22;24.00;99.90
28253;DHT22;15515;45.588;5.276;2022-08-18T11:56:05;24.10;99.90
28253;DHT22;15515;45.588;5.276;2022-08-18T11:58:42;24.10;99.90
28253;DHT22;15515;45.588;5.276;2022-08-18T12:04:13;24.10;99.90
28253;DHT22;15515;45.588;5.276;2022-08-18T12:09:18;24.20;99.90
28253;DHT22;15515;45.588;5.276;2022-08-18T12:12:25;24.20;99.90
28253;DHT22;15515;45.588;5.276;2022-08-18T12:14:57;24.20;98.70
28253;DHT22;15515;45.588;5.276;2022-08-18T12:17:30;24.20;98.30
28253;DHT22;15515;45.588;5.276;2022-08-18T12:19:58;24.10;98.40
28253;DHT22;15515;45.588;5.276;2022-08-18T12:22:28;24.10;98.70
28253;DHT22;15515;45.588;5.276;2022-08-18T12:24:57;24.00;99.90
28253;DHT22;15515;45.588;5.276;2022-08-18T12:27:25;24.00;99.90
28253;DHT22;15515;45.588;5.276;2022-08-18T12:29:54;24.10;99.90
28253;DHT22;15515;45.588;5.276;2022-08-18T12:32:23;24.10;99.80
28253;DHT22;15515;45.588;5.276;2022-08-18T12:34:51;24.10;99.30
28253;DHT22;15515;45.588;5.276;2022-08-18T12:37:22;24.10;99.90
28253;DHT22;15515;45.588;5.276;2022-08-18T12:40:10;24.10;99.80
28253;DHT22;15515;45.588;5.276;2022-08-18T12:42:38;24.10;99.50
28253;DHT22;15515;45.588;5.276;2022-08-18T12:45:06;24.10;99.00
28253;DHT22;15515;45.588;5.276;2022-08-18T12:47:37;24.10;98.60
28253;DHT22;15515;45.588;5.276;2022-08-18T12:50:06;24.10;98.60
28253;DHT22;15515;45.588;5.276;2022-08-18T12:52:33;24.10;99.30
28253;DHT22;15515;45.588;5.276;2022-08-18T12:55:00;24.10;99.90
28253;DHT22;15515;45.588;5.276;2022-08-18T12:57:27;24.10;99.90
28253;DHT22;15515;45.588;5.276;2022-08-18T12:59:54;24.00;99.90
28253;DHT22;15515;45.588;5.276;2022-08-18T13:02:22;24.00;99.90
28253;DHT22;15515;45.588;5.276;2022-08-18T13:04:49;24.10;99.90
28253;DHT22;15515;45.588;5.276;2022-08-18T13:07:16;24.10;99.90
28253;DHT22;15515;45.588;5.276;2022-08-18T13:09:44;24.10;99.90
28253;DHT22;15515;45.588;5.276;2022-08-18T13:12:12;24.10;99.90
28253;DHT22;15515;45.588;5.276;2022-08-18T13:14:40;24.10;99.90
28253;DHT22;15515;45.588;5.276;2022-08-18T13:17:07;24.10;99.90
28253;DHT22;15515;45.588;5.276;2022-08-18T14:53:14;24.70;97.00
28253;DHT22;15515;45.588;5.276;2022-08-18T14:55:41;24.70;96.30
28253;DHT22;15515;45.588;5.276;2022-08-18T14:58:09;24.70;97.00
28253;DHT22;15515;45.588;5.276;2022-08-18T15:00:36;24.70;96.80
28253;DHT22;15515;45.588;5.276;2022-08-18T15:03:03;24.70;96.80
28253;DHT22;15515;45.588;5.276;2022-08-18T15:05:32;24.60;96.50
28253;DHT22;15515;45.588;5.276;2022-08-18T15:08:01;24.50;96.30
28253;DHT22;15515;45.588;5.276;2022-08-18T15:10:31;24.50;96.70
28253;DHT22;15515;45.588;5.276;2022-08-18T15:12:59;24.40;96.70
28253;DHT22;15515;45.588;5.276;2022-08-18T15:15:27;24.40;96.60
28253;DHT22;15515;45.588;5.276;2022-08-18T15:17:54;24.30;97.00
28253;DHT22;15515;45.588;5.276;2022-08-18T15:20:24;24.30;97.00
28253;DHT22;15515;45.588;5.276;2022-08-18T15:22:51;24.20;96.90
28253;DHT22;15515;45.588;5.276;2022-08-18T15:25:37;24.20;96.30
28253;DHT22;15515;45.588;5.276;2022-08-18T15:30:44;24.20;94.70
28253;DHT22;15515;45.588;5.276;2022-08-18T15:33:13;24.20;93.80
28253;DHT22;15515;45.588;5.276;2022-08-18T15:35:42;24.30;93.70
28253;DHT22;15515;45.588;5.276;2022-08-18T15:38:11;24.40;93.30
28253;DHT22;15515;45.588;5.276;2022-08-18T15:40:50;24.40;92.80
28253;DHT22;15515;45.588;5.276;2022-08-18T15:43:18;24.40;92.90
28253;DHT22;15515;45.588;5.276;2022-08-18T15:45:46;24.40;92.80
28253;DHT22;15515;45.588;5.276;2022-08-18T15:48:15;24.40;92.60
28253;DHT22;15515;45.588;5.276;2022-08-18T15:50:44;24.40;92.60
28253;DHT22;15515;45.588;5.276;2022-08-18T15:53:16;24.50;92.60
28253;DHT22;15515;45.588;5.276;2022-08-18T15:55:44;24.40;92.30
28253;DHT22;15515;45.588;5.276;2022-08-18T15:58:12;24.50;92.30
28253;DHT22;15515;45.588;5.276;2022-08-18T16:00:42;24.50;91.90
28253;DHT22;15515;45.588;5.276;2022-08-18T16:03:10;24.40;92.20
28253;DHT22;15515;45.588;5.276;2022-08-18T16:05:48;24.40;91.80
28253;DHT22;15515;45.588;5.276;2022-08-18T16:08:18;24.40;91.60
28253;DHT22;15515;45.588;5.276;2022-08-18T16:10:46;24.30;91.60
28253;DHT22;15515;45.588;5.276;2022-08-18T16:13:13;24.30;91.70
28253;DHT22;15515;45.588;5.276;2022-08-18T16:15:42;24.30;92.50
28253;DHT22;15515;45.588;5.276;2022-08-18T16:18:13;24.30;92.00
28253;DHT22;15515;45.588;5.276;2022-08-18T16:20:41;24.30;92.10
28253;DHT22;15515;45.588;5.276;2022-08-18T16:23:09;24.30;92.10
28253;DHT22;15515;45.588;5.276;2022-08-18T16:25:42;24.30;92.20
28253;DHT22;15515;45.588;5.276;2022-08-18T16:28:10;24.30;92.30
28253;DHT22;15515;45.588;5.276;2022-08-18T16:30:39;24.30;92.10
28253;DHT22;15515;45.588;5.276;2022-08-18T16:33:06;24.20;92.40
28253;DHT22;15515;45.588;5.276;2022-08-18T16:35:34;24.20;92.20
28253;DHT22;15515;45.588;5.276;2022-08-18T16:38:04;24.20;92.60
28253;DHT22;15515;45.588;5.276;2022-08-18T16:40:33;24.10;92.80
28253;DHT22;15515;45.588;5.276;2022-08-18T16:43:00;24.20;93.10
28253;DHT22;15515;45.588;5.276;2022-08-18T16:45:28;24.20;93.30
28253;DHT22;15515;45.588;5.276;2022-08-18T16:47:57;24.20;93.00
28253;DHT22;15515;45.588;5.276;2022-08-18T16:50:24;24.20;93.50
28253;DHT22;15515;45.588;5.276;2022-08-18T16:52:51;24.20;93.70
28253;DHT22;15515;45.588;5.276;2022-08-18T16:55:19;24.20;93.70
28253;DHT22;15515;45.588;5.276;2022-08-18T16:57:46;24.20;94.00
28253;DHT22;15515;45.588;5.276;2022-08-18T17:00:33;24.20;93.90
28253;DHT22;15515;45.588;5.276;2022-08-18T17:03:18;24.20;94.10
28253;DHT22;15515;45.588;5.276;2022-08-18T17:06:07;24.20;94.30
28253;DHT22;15515;45.588;5.276;2022-08-18T17:08:35;24.10;93.80
28253;DHT22;15515;45.588;5.276;2022-08-18T17:11:05;24.10;94.30
28253;DHT22;15515;45.588;5.276;2022-08-18T17:13:33;24.10;94.30
28253;DHT22;15515;45.588;5.276;2022-08-18T17:16:00;24.10;94.80
28253;DHT22;15515;45.588;5.276;2022-08-18T17:18:27;24.00;94.80
28253;DHT22;15515;45.588;5.276;2022-08-18T17:20:56;24.00;94.60
28253;DHT22;15515;45.588;5.276;2022-08-18T17:23:26;24.10;95.80
28253;DHT22;15515;45.588;5.276;2022-08-18T17:25:54;24.00;95.40
28253;DHT22;15515;45.588;5.276;2022-08-18T17:28:49;24.00;95.60
28253;DHT22;15515;45.588;5.276;2022-08-18T17:31:11;24.00;95.30
28253;DHT22;15515;45.588;5.276;2022-08-18T17:33:39;24.00;95.60
28253;DHT22;15515;45.588;5.276;2022-08-18T17:39:18;23.90;95.80
28253;DHT22;15515;45.588;5.276;2022-08-18T17:41:47;23.90;96.00
28253;DHT22;15515;45.588;5.276;2022-08-18T17:44:34;23.90;96.40
28253;DHT22;15515;45.588;5.276;2022-08-18T17:47:03;23.80;96.50
28253;DHT22;15515;45.588;5.276;2022-08-18T17:49:42;23.80;96.80
28253;DHT22;15515;45.588;5.276;2022-08-18T17:52:39;23.80;96.90
28253;DHT22;15515;45.588;5.276;2022-08-18T17:55:33;23.70;96.90
28253;DHT22;15515;45.588;5.276;2022-08-18T17:58:35;23.70;97.40
28253;DHT22;15515;45.588;5.276;2022-08-18T18:01:10;23.70;97.50
28253;DHT22;15515;45.588;5.276;2022-08-18T18:03:38;23.70;97.60
28253;DHT22;15515;45.588;5.276;2022-08-18T18:08:51;23.60;98.10
28253;DHT22;15515;45.588;5.276;2022-08-18T18:11:28;23.50;97.70
28253;DHT22;15515;45.588;5.276;2022-08-18T18:14:33;23.50;97.80
28253;DHT22;15515;45.588;5.276;2022-08-18T18:17:46;23.50;98.40
28253;DHT22;15515;45.588;5.276;2022-08-18T18:20:00;23.50;98.60
28253;DHT22;15515;45.588;5.276;2022-08-18T18:22:40;23.40;98.40
28253;DHT22;15515;45.588;5.276;2022-08-18T18:25:11;23.40;99.20
28253;DHT22;15515;45.588;5.276;2022-08-18T18:27:41;23.30;99.30
28253;DHT22;15515;45.588;5.276;2022-08-18T18:33:02;23.30;99.60
28253;DHT22;15515;45.588;5.276;2022-08-18T18:35:51;23.20;99.80
28253;DHT22;15515;45.588;5.276;2022-08-18T18:38:34;23.20;99.90
28253;DHT22;15515;45.588;5.276;2022-08-18T18:41:16;23.20;99.90
28253;DHT22;15515;45.588;5.276;2022-08-18T18:43:47;23.20;99.90
28253;DHT22;15515;45.588;5.276;2022-08-18T18:51:41;23.20;99.90
28253;DHT22;15515;45.588;5.276;2022-08-18T18:56:44;23.10;99.90
28253;DHT22;15515;45.588;5.276;2022-08-18T19:02:19;23.10;99.90
28253;DHT22;15515;45.588;5.276;2022-08-18T19:04:59;23.00;99.90
28253;DHT22;15515;45.588;5.276;2022-08-18T19:10:18;23.00;99.90
28253;DHT22;15515;45.588;5.276;2022-08-18T19:13:17;23.00;99.90
28253;DHT22;15515;45.588;5.276;2022-08-18T19:15:46;22.90;99.90
28253;DHT22;15515;45.588;5.276;2022-08-18T19:18:27;22.90;99.90
28253;DHT22;15515;45.588;5.276;2022-08-18T19:21:01;22.90;99.90
28253;DHT22;15515;45.588;5.276;2022-08-18T19:23:33;22.90;99.90
28253;DHT22;15515;45.588;5.276;2022-08-18T19:26:06;22.90;99.90
28253;DHT22;15515;45.588;5.276;2022-08-18T19:28:39;22.90;99.90
28253;DHT22;15515;45.588;5.276;2022-08-18T19:31:23;22.80;99.90
28253;DHT22;15515;45.588;5.276;2022-08-18T19:34:06;22.80;99.90
28253;DHT22;15515;45.588;5.276;2022-08-18T19:36:52;22.80;99.90
28253;DHT22;15515;45.588;5.276;2022-08-18T19:47:54;22.80;99.90
28253;DHT22;15515;45.588;5.276;2022-08-18T19:50:39;22.70;99.90
28253;DHT22;15515;45.588;5.276;2022-08-18T19:59:47;22.70;99.90
28253;DHT22;15515;45.588;5.276;2022-08-18T20:03:00;22.60;99.90
28253;DHT22;15515;45.588;5.276;2022-08-18T20:08:13;22.50;99.90
28253;DHT22;15515;45.588;5.276;2022-08-18T20:13:32;22.50;99.90
28253;DHT22;15515;45.588;5.276;2022-08-18T20:18:32;22.40;99.90
28253;DHT22;15515;45.588;5.276;2022-08-18T20:24:04;22.40;99.90
28253;DHT22;15515;45.588;5.276;2022-08-18T20:29:12;22.30;99.90
28253;DHT22;15515;45.588;5.276;2022-08-18T20:34:19;22.20;99.90
28253;DHT22;15515;45.588;5.276;2022-08-18T20:36:48;22.20;99.90
28253;DHT22;15515;45.588;5.276;2022-08-18T20:47:45;22.10;99.90
28253;DHT22;15515;45.588;5.276;2022-08-18T20:50:33;22.10;99.90
